Phoenix, Oregon
Current Conditions -  °F | °C
As of 5:53 AM on Wednesday 28 Jan 2015 (Local Time) from KMFR Reporting Station
Moderate Fog Moderate Fog  
Wind Chill: 36°   Ceiling: 200
Heat Index: 36°   Visibility: 0.25mi
Dew Point: 35°   Wind: 0mph
Humidity: 97%   Direction: NA
Pressure: 30.31"   Gusts: NA
Location:  42.28°N, 122.82°W
Report Text: KMFR 281353Z 00000KT 1/4SM R14/1400V2000FT FG VV002 02/02 A3031 RMK AO2 SLP270 T00220017
Loading
Personal Weather Stations






























Interactive Weather Map New forecast layout! Learn more

10-Day Weather Forecast

Advertisements
Track Severe Weather on mobile